createdAt,value
2018-07-03T00:03:25.795Z,14.20
2018-07-03T00:08:29.069Z,14.20
2018-07-03T00:13:32.360Z,14.40
2018-07-03T00:18:35.623Z,14.70
2018-07-03T00:23:38.881Z,14.80
2018-07-03T00:28:42.141Z,14.80
2018-07-03T00:33:45.397Z,14.80
2018-07-03T00:38:48.665Z,14.60
2018-07-03T00:43:52.024Z,14.60
2018-07-03T00:48:55.293Z,14.60
2018-07-03T00:53:58.571Z,14.50
2018-07-03T00:59:01.922Z,14.50
2018-07-03T01:04:05.178Z,14.30
2018-07-03T01:09:09.233Z,13.80
2018-07-03T01:14:12.504Z,13.70
2018-07-03T01:19:15.769Z,13.80
2018-07-03T01:24:19.035Z,13.50
2018-07-03T01:29:22.295Z,13.50
2018-07-03T01:34:27.549Z,13.60
2018-07-03T01:39:30.808Z,13.80
2018-07-03T01:44:34.076Z,13.50
2018-07-03T01:49:37.368Z,13.30
2018-07-03T01:54:47.023Z,13.30
2018-07-03T02:04:53.555Z,13.10
2018-07-03T02:09:56.820Z,13.00
2018-07-03T02:15:00.112Z,12.90
2018-07-03T02:20:03.459Z,12.90
2018-07-03T02:25:06.720Z,12.90
2018-07-03T02:30:09.982Z,12.90
2018-07-03T02:35:13.242Z,13.00
2018-07-03T02:40:16.501Z,13.00
2018-07-03T02:45:19.796Z,12.90
2018-07-03T02:50:23.042Z,12.90
2018-07-03T02:55:26.317Z,12.70
2018-07-03T03:00:29.587Z,12.50
2018-07-03T03:05:32.864Z,12.50
2018-07-03T03:10:36.123Z,12.50
2018-07-03T03:15:39.379Z,12.30
2018-07-03T03:20:42.648Z,12.30
2018-07-03T03:25:45.905Z,12.30
2018-07-03T03:30:49.172Z,12.60
2018-07-03T03:35:52.455Z,12.50
2018-07-03T03:40:55.702Z,12.60
2018-07-03T03:45:58.980Z,12.60
2018-07-03T03:51:02.251Z,12.40
2018-07-03T03:56:05.566Z,12.50
2018-07-03T04:01:08.827Z,12.70
2018-07-03T04:11:15.300Z,12.80
2018-07-03T04:16:18.571Z,12.90
2018-07-03T04:21:21.833Z,12.80
2018-07-03T04:36:31.118Z,12.90
2018-07-03T04:41:34.407Z,13.00
2018-07-03T04:46:37.665Z,13.10
2018-07-03T04:51:40.940Z,13.20
2018-07-03T04:56:44.201Z,13.20
2018-07-03T05:06:50.472Z,13.40
2018-07-03T05:11:53.744Z,13.60
2018-07-03T05:16:57.001Z,13.90
2018-07-03T05:22:00.337Z,14.30
2018-07-03T05:27:03.618Z,14.30
2018-07-03T05:37:16.620Z,15.00
2018-07-03T05:42:19.847Z,15.00
2018-07-03T05:47:23.112Z,15.30
2018-07-03T05:52:26.402Z,15.60
2018-07-03T05:57:29.679Z,16.50
2018-07-03T06:02:32.957Z,16.20
2018-07-03T06:07:36.235Z,16.20
2018-07-03T06:12:39.488Z,17.20
2018-07-03T06:17:42.760Z,18.10
2018-07-03T06:22:46.026Z,19.00
2018-07-03T06:27:49.326Z,19.60
2018-07-03T06:32:52.603Z,20.30
2018-07-03T06:37:55.862Z,20.20
2018-07-03T06:42:59.144Z,20.90
2018-07-03T06:48:02.444Z,20.50
2018-07-03T06:53:05.707Z,21.90
2018-07-03T06:58:09.007Z,22.10
2018-07-03T07:08:15.490Z,23.20
2018-07-03T07:13:18.764Z,23.30
2018-07-03T07:18:22.035Z,22.70
2018-07-03T07:28:28.698Z,23.20
2018-07-03T07:33:31.947Z,22.80
2018-07-03T07:38:35.224Z,22.10
2018-07-03T07:43:38.583Z,22.70
2018-07-03T07:48:41.858Z,23.40
2018-07-03T07:53:45.171Z,24.00
2018-07-03T07:58:48.457Z,24.50
2018-07-03T08:03:51.739Z,24.00
2018-07-03T08:08:55.016Z,24.20
2018-07-03T08:13:58.300Z,23.90
2018-07-03T08:19:01.574Z,22.50
2018-07-03T08:29:07.993Z,24.30
2018-07-03T08:34:11.250Z,24.80
2018-07-03T08:39:14.538Z,24.10
2018-07-03T08:44:17.884Z,23.50
2018-07-03T08:49:21.180Z,24.70
2018-07-03T08:54:24.447Z,25.60
2018-07-03T09:04:30.807Z,26.80
2018-07-03T09:09:34.079Z,27.30
2018-07-03T09:19:40.364Z,27.60
2018-07-03T09:24:43.634Z,27.90
2018-07-03T09:29:46.897Z,28.20
2018-07-03T09:34:50.164Z,28.00
2018-07-03T09:39:53.456Z,27.50
2018-07-03T09:50:00.620Z,28.30
2018-07-03T09:55:03.950Z,25.70
2018-07-03T10:00:07.595Z,25.70
2018-07-03T10:10:13.967Z,26.70
2018-07-03T10:15:17.286Z,28.40
2018-07-03T10:20:20.543Z,29.10
2018-07-03T10:25:23.807Z,27.70
2018-07-03T10:30:27.109Z,28.40
2018-07-03T10:35:30.361Z,28.90
2018-07-03T10:45:36.640Z,30.80
2018-07-03T10:50:39.938Z,30.40
2018-07-03T10:55:43.240Z,30.10
2018-07-03T11:00:46.505Z,29.20
2018-07-03T11:05:49.904Z,28.90
2018-07-03T11:10:53.173Z,28.00
2018-07-03T11:15:56.496Z,28.50
2018-07-03T11:20:59.759Z,28.10
2018-07-03T11:26:03.024Z,28.30
2018-07-03T11:31:06.284Z,29.40
2018-07-03T11:36:09.538Z,27.90
2018-07-03T11:41:12.782Z,27.90
2018-07-03T11:46:16.062Z,27.90
2018-07-03T11:51:19.320Z,29.90
2018-07-03T11:56:22.583Z,31.80
2018-07-03T12:01:25.959Z,30.00
2018-07-03T12:06:29.239Z,28.40
2018-07-03T12:11:32.496Z,28.40
2018-07-03T12:16:35.739Z,27.40
2018-07-03T12:21:39.035Z,28.40
2018-07-03T12:26:42.300Z,28.60
2018-07-03T12:41:51.619Z,31.80
2018-07-03T12:46:54.922Z,33.30
2018-07-03T12:51:58.189Z,32.80
2018-07-03T12:57:01.475Z,30.80
2018-07-03T13:02:04.788Z,31.40
2018-07-03T13:07:08.065Z,29.40
2018-07-03T13:12:11.332Z,29.40
2018-07-03T13:17:14.619Z,31.80
2018-07-03T13:22:17.894Z,31.40
2018-07-03T13:27:21.267Z,33.20
2018-07-03T13:32:24.508Z,34.50
2018-07-03T13:37:27.772Z,34.50
2018-07-03T13:42:31.070Z,33.60
2018-07-03T13:47:34.408Z,34.10
2018-07-03T13:52:37.701Z,36.40
2018-07-03T13:57:40.988Z,35.10
2018-07-03T14:02:44.252Z,34.00
2018-07-03T14:07:47.520Z,35.10
2018-07-03T14:12:50.788Z,35.60
2018-07-03T14:17:54.063Z,33.30
2018-07-03T14:22:57.332Z,29.60
2018-07-03T14:28:00.601Z,29.60
2018-07-03T14:33:04.064Z,30.80
2018-07-03T14:43:10.468Z,29.80
2018-07-03T14:48:13.736Z,28.80
2018-07-03T14:53:16.988Z,29.50
2018-07-03T14:58:20.240Z,28.60
2018-07-03T15:03:23.535Z,28.60
2018-07-03T15:08:26.815Z,28.40
2018-07-03T15:13:30.086Z,28.20
2018-07-03T15:18:38.886Z,28.10
2018-07-03T15:30:18.285Z,28.30
2018-07-03T15:36:24.567Z,28.30
2018-07-03T15:51:34.069Z,27.30
2018-07-03T15:56:37.511Z,26.60
2018-07-03T16:01:40.785Z,26.50
2018-07-03T16:07:21.826Z,26.60
2018-07-03T16:12:25.225Z,26.60
2018-07-03T16:17:28.891Z,26.70
2018-07-03T16:22:32.331Z,26.50
2018-07-03T16:27:35.858Z,26.70
2018-07-03T16:32:39.130Z,26.60
2018-07-03T16:37:42.613Z,26.40
2018-07-03T16:47:49.067Z,26.20
2018-07-03T16:52:52.948Z,26.10
2018-07-03T16:57:56.718Z,26.20
2018-07-03T17:03:00.611Z,26.00
2018-07-03T17:08:03.972Z,26.10
2018-07-03T17:13:07.336Z,26.30
2018-07-03T17:18:10.654Z,26.20
2018-07-03T17:23:13.974Z,26.00
2018-07-03T17:28:17.260Z,26.00
2018-07-03T17:33:20.711Z,25.90
2018-07-03T17:38:24.002Z,25.90
2018-07-03T17:44:10.085Z,25.80
2018-07-03T17:54:16.346Z,25.50
2018-07-03T17:59:19.626Z,25.40
2018-07-03T18:14:28.977Z,25.10
2018-07-03T18:19:37.632Z,25.10
2018-07-03T18:24:40.989Z,25.00
2018-07-03T18:34:47.344Z,24.70
2018-07-03T18:39:50.936Z,24.60
2018-07-03T18:44:54.173Z,24.40
2018-07-03T18:49:57.408Z,24.30
2018-07-03T18:55:00.676Z,24.10
2018-07-03T19:00:04.566Z,24.00
2018-07-03T19:05:07.839Z,23.90
2018-07-03T19:10:11.137Z,23.70
2018-07-03T19:15:14.480Z,23.50
2018-07-03T19:20:17.728Z,23.30
2018-07-03T19:25:21.019Z,23.10
2018-07-03T19:30:24.302Z,23.00
2018-07-03T19:35:27.591Z,22.90
2018-07-03T19:40:30.846Z,22.70
2018-07-03T19:45:34.122Z,22.60
2018-07-03T19:50:37.398Z,22.40
2018-07-03T19:55:40.763Z,22.10
2018-07-03T20:00:51.503Z,22.10
2018-07-03T20:05:54.801Z,21.80
2018-07-03T20:10:58.058Z,21.40
2018-07-03T20:16:01.326Z,21.30
2018-07-03T20:21:04.752Z,21.40
2018-07-03T20:26:08.903Z,21.30
2018-07-03T20:31:12.171Z,21.10
2018-07-03T20:41:18.468Z,20.60
2018-07-03T20:46:21.855Z,20.40
2018-07-03T20:51:25.144Z,19.80
2018-07-03T20:56:28.408Z,19.80
2018-07-03T21:01:31.664Z,19.80
2018-07-03T21:06:34.942Z,19.70
2018-07-03T21:11:38.286Z,19.70
2018-07-03T21:16:41.502Z,19.70
2018-07-03T21:26:47.769Z,19.70
2018-07-03T21:31:51.190Z,19.70
2018-07-03T21:41:57.387Z,19.80
2018-07-03T21:47:00.641Z,19.80
2018-07-03T21:52:03.888Z,19.60
2018-07-03T21:57:07.201Z,19.00
2018-07-03T22:07:13.491Z,19.00
2018-07-03T22:12:16.763Z,19.00
2018-07-03T22:22:23.031Z,18.70
2018-07-03T22:27:26.287Z,18.50
2018-07-03T22:37:32.531Z,18.50
2018-07-03T22:52:41.798Z,17.80
2018-07-03T22:57:45.072Z,18.00
2018-07-03T23:02:48.345Z,18.00
2018-07-03T23:07:51.644Z,18.20
2018-07-03T23:12:54.883Z,18.20
2018-07-03T23:17:58.138Z,18.20
2018-07-03T23:23:01.406Z,18.00
2018-07-03T23:28:04.690Z,17.90
2018-07-03T23:33:08.148Z,17.90
2018-07-03T23:38:11.444Z,17.80
2018-07-03T23:43:14.824Z,17.80
2018-07-03T23:53:39.172Z,17.90
